Time;durP1;ratioP1;P1;durP2;ratioP2;P2;SDS_P1;SDS_P2;PMS_P1;PMS_P2;Temp;Humidity;BMP_temperature;BMP_pressure;BME280_temperature;BME280_humidity;BME280_pressure;Samples;Min_cycle;Max_cycle;Signal;HPM_P1;HPM_P2
2021/06/14 00:01:11;;;;;;;;;5.00;4.00;;;;;22.36;42.88;101830.81;4900094;29;45354;-90
2021/06/14 00:03:36;;;;;;;;;5.67;5.00;;;;;22.35;42.89;101833.50;4901548;28;45287;-89
2021/06/14 00:06:03;;;;;;;;;7.00;5.00;;;;;22.44;43.35;101861.03;4901247;28;45340;-91
2021/06/14 00:08:29;;;;;;;;;5.33;5.00;;;;;22.28;43.01;101825.56;4901498;28;45326;-91
2021/06/14 00:10:57;;;;;;;;;4.00;4.00;;;;;22.26;42.38;101823.81;4901314;28;45368;-91
2021/06/14 00:13:25;;;;;;;;;6.00;6.00;;;;;22.29;42.88;101832.69;4900086;29;45325;-90
2021/06/14 00:15:51;;;;;;;;;6.33;5.00;;;;;22.31;43.24;101841.63;4899466;29;47326;-90
2021/06/14 00:18:18;;;;;;;;;5.00;4.00;;;;;22.28;42.80;101844.31;4901363;29;45240;-88
2021/06/14 00:20:52;;;;;;;;;3.00;3.00;;;;;22.31;43.50;101849.66;4901299;29;45383;-88
2021/06/14 00:23:18;;;;;;;;;6.00;5.67;;;;;22.23;43.04;101837.28;4915886;28;45228;-91
2021/06/14 00:25:43;;;;;;;;;6.00;4.33;;;;;22.19;43.74;101834.63;4899925;29;47035;-88
2021/06/14 00:28:09;;;;;;;;;3.67;3.33;;;;;22.21;43.43;101848.88;4900096;29;45378;-88
2021/06/14 00:30:39;;;;;;;;;8.67;5.00;;;;;22.22;43.17;101841.72;4900071;29;45452;-88
2021/06/14 00:33:05;;;;;;;;;5.00;5.00;;;;;22.20;43.67;101843.53;4901609;28;45216;-88
2021/06/14 00:35:31;;;;;;;;;6.33;5.00;;;;;22.24;43.49;101861.34;4903457;28;45341;-89
2021/06/14 00:37:57;;;;;;;;;7.00;5.00;;;;;22.15;43.96;101838.25;4903581;29;46039;-90
2021/06/14 00:40:22;;;;;;;;;5.67;5.67;;;;;22.10;43.66;101832.09;4904250;28;45232;-89
2021/06/14 00:42:48;;;;;;;;;7.00;4.33;;;;;22.18;43.48;101848.03;4913048;28;45202;-88
2021/06/14 00:45:16;;;;;;;;;6.33;5.33;;;;;22.12;43.10;101840.09;4913774;28;45993;-89
2021/06/14 00:47:46;;;;;;;;;7.00;4.00;;;;;22.23;43.13;101862.22;4910941;29;45395;-91
2021/06/14 00:50:14;;;;;;;;;6.67;5.33;;;;;22.09;43.33;101841.91;4917247;28;45452;-87
2021/06/14 00:52:40;;;;;;;;;4.00;4.00;;;;;22.11;43.44;101852.59;4923953;28;45345;-88
2021/06/14 00:55:09;;;;;;;;;7.67;6.00;;;;;22.18;43.02;101864.09;4921139;28;45651;-89
2021/06/14 00:57:35;;;;;;;;;7.00;6.00;;;;;22.06;43.09;101836.56;4920487;28;45164;-91
2021/06/14 01:00:01;;;;;;;;;5.33;5.00;;;;;22.08;43.14;101845.47;4904459;29;45453;-90
2021/06/14 01:02:26;;;;;;;;;7.67;6.00;;;;;22.02;43.84;101832.16;4905765;28;45430;-90
2021/06/14 01:04:52;;;;;;;;;9.00;7.00;;;;;22.04;43.39;101835.72;4905027;28;46173;-89
2021/06/14 01:07:18;;;;;;;;;6.67;5.00;;;;;22.11;43.66;101844.56;4904351;29;45345;-89
2021/06/14 01:09:43;;;;;;;;;7.00;5.00;;;;;22.07;43.57;101845.50;4903198;29;45534;-91
2021/06/14 01:12:10;;;;;;;;;6.00;6.00;;;;;22.13;43.84;101855.22;4903445;29;45446;-89
2021/06/14 01:15:00;;;;;;;;;5.00;5.00;;;;;22.02;43.26;101837.53;4903948;28;46215;-91
2021/06/14 01:17:34;;;;;;;;;5.00;5.00;;;;;22.12;43.48;101849.00;4905434;28;45397;-92
2021/06/14 01:20:00;;;;;;;;;4.67;4.67;;;;;22.12;43.56;101845.44;4905370;28;45288;-89
2021/06/14 01:22:50;;;;;;;;;5.00;5.00;;;;;22.11;43.91;101847.22;4902779;29;45345;-91
2021/06/14 01:25:40;;;;;;;;;5.00;5.00;;;;;22.09;43.72;101839.22;4903404;29;45378;-90
2021/06/14 01:28:07;;;;;;;;;8.33;6.00;;;;;22.08;44.01;101840.13;4902384;29;45477;-91
2021/06/14 01:30:36;;;;;;;;;8.00;6.67;;;;;21.95;44.24;101820.69;4902276;29;45330;-89
2021/06/14 01:33:05;;;;;;;;;5.00;5.00;;;;;22.06;43.98;101833.91;4902335;29;44889;-90
2021/06/14 01:35:40;;;;;;;;;8.00;6.00;;;;;22.05;43.50;101836.59;4917751;28;47369;-91
2021/06/14 01:38:08;;;;;;;;;7.00;7.00;;;;;21.92;44.23;101810.00;4902317;29;45789;-89
2021/06/14 01:40:36;;;;;;;;;7.67;5.33;;;;;21.90;44.25;101808.25;4902335;29;45375;-89
2021/06/14 01:43:05;;;;;;;;;6.00;6.00;;;;;21.95;44.32;101811.75;4903833;29;45341;-89
2021/06/14 01:45:33;;;;;;;;;8.00;6.67;;;;;21.98;44.33;101815.25;4903308;28;45469;-92
2021/06/14 01:47:59;;;;;;;;;6.33;5.00;;;;;21.86;44.82;101796.69;4902304;29;46001;-90
2021/06/14 01:50:31;;;;;;;;;8.00;6.33;;;;;21.92;44.71;101806.44;4903838;28;45441;-90
2021/06/14 01:52:57;;;;;;;;;10.67;7.00;;;;;21.84;44.47;101783.34;4903564;28;45332;-91
2021/06/14 01:55:25;;;;;;;;;5.67;5.67;;;;;21.81;44.80;101780.66;4903986;29;45406;-90
2021/06/14 01:57:52;;;;;;;;;6.00;6.00;;;;;21.79;44.53;101776.22;4903908;28;45469;-91
2021/06/14 02:00:21;;;;;;;;;7.67;7.33;;;;;21.87;44.79;101793.13;4902477;29;45526;-90
2021/06/14 02:02:48;;;;;;;;;8.67;6.00;;;;;21.90;44.50;101798.44;4903974;28;45411;-92
2021/06/14 02:05:15;;;;;;;;;5.67;5.33;;;;;21.78;44.58;101785.16;4902388;29;47704;-90
2021/06/14 02:07:42;;;;;;;;;8.00;6.00;;;;;21.82;45.08;101793.16;4902602;29;45945;-91
2021/06/14 02:10:08;;;;;;;;;6.33;6.00;;;;;21.73;44.75;101770.06;4904407;29;45275;-92
2021/06/14 02:12:39;;;;;;;;;7.00;6.00;;;;;21.74;44.91;101770.97;4902878;29;45420;-92
2021/06/14 02:15:06;;;;;;;;;5.33;5.33;;;;;21.69;45.02;101762.09;4903791;28;45474;-94
2021/06/14 02:17:31;;;;;;;;;7.33;6.00;;;;;21.73;44.48;101763.81;4902379;29;45427;-92
2021/06/14 02:19:57;;;;;;;;;7.00;5.67;;;;;21.77;44.34;101768.22;4903548;28;45299;-91
2021/06/14 02:22:23;;;;;;;;;7.33;6.67;;;;;21.73;44.50;101766.50;4903576;28;45461;-93
2021/06/14 02:24:49;;;;;;;;;8.00;6.00;;;;;21.64;44.50;101752.34;4902359;29;47972;-91
2021/06/14 02:27:16;;;;;;;;;5.00;5.00;;;;;21.59;44.76;101743.50;4903918;28;45316;-93
2021/06/14 02:29:43;;;;;;;;;7.33;6.00;;;;;21.72;44.33;101765.59;4903496;28;45322;-91
2021/06/14 02:32:08;;;;;;;;;6.00;6.00;;;;;21.61;44.76;101746.13;4903915;28;45191;-91
2021/06/14 02:34:36;;;;;;;;;6.00;5.00;;;;;21.59;44.59;101743.50;4901709;29;46571;-92
2021/06/14 02:37:03;;;;;;;;;7.00;4.33;;;;;21.61;44.35;101746.13;4903212;29;45401;-92
2021/06/14 02:39:31;;;;;;;;;6.33;5.00;;;;;21.59;44.72;101743.50;4903248;28;45401;-91
2021/06/14 02:41:57;;;;;;;;;6.00;6.00;;;;;21.48;45.18;101729.34;4902481;29;45223;-90
2021/06/14 02:44:24;;;;;;;;;4.00;3.00;;;;;21.59;44.52;101754.19;4902022;29;46265;-92
2021/06/14 02:46:50;;;;;;;;;7.00;6.00;;;;;21.50;44.72;101741.81;4901591;29;45451;-91
2021/06/14 02:49:16;;;;;;;;;6.00;5.33;;;;;21.56;45.35;101753.31;4902399;28;45384;-90
2021/06/14 02:51:45;;;;;;;;;6.33;4.00;;;;;21.52;44.96;101755.16;4903406;28;45275;-90
2021/06/14 02:54:20;;;;;;;;;4.33;4.33;;;;;21.51;44.70;101748.06;4901455;29;47103;-89
2021/06/14 02:56:48;;;;;;;;;5.00;4.00;;;;;21.44;44.87;101743.69;4902407;28;45421;-91
2021/06/14 02:59:16;;;;;;;;;5.00;5.00;;;;;21.43;44.48;101739.25;4903115;28;45351;-92
2021/06/14 03:01:46;;;;;;;;;4.67;4.67;;;;;21.43;44.84;101736.56;4908087;28;45374;-91
2021/06/14 03:04:13;;;;;;;;;6.00;6.00;;;;;21.42;45.09;101750.84;4909624;29;46072;-91
2021/06/14 03:06:41;;;;;;;;;4.00;4.00;;;;;21.44;45.19;101749.03;4916886;28;45452;-89
2021/06/14 03:09:07;;;;;;;;;4.67;4.33;;;;;21.38;44.88;101750.84;4921801;28;44753;-90
2021/06/14 03:11:33;;;;;;;;;3.33;3.33;;;;;21.39;45.37;101758.00;4924729;28;45290;-90
2021/06/14 03:14:00;;;;;;;;;5.33;4.67;;;;;21.25;45.08;101735.88;4923976;29;46044;-91
2021/06/14 03:16:26;;;;;;;;;6.00;5.00;;;;;21.38;44.95;101760.69;4925245;29;44873;-89
2021/06/14 03:18:54;;;;;;;;;4.00;4.00;;;;;21.27;45.34;101742.09;4926435;29;44784;-92
2021/06/14 03:21:21;;;;;;;;;5.00;5.00;;;;;21.32;45.19;101755.41;4919071;28;45334;-90
2021/06/14 03:23:52;;;;;;;;;4.00;4.00;;;;;21.20;45.14;101735.91;4907248;28;45678;-92
2021/06/14 03:26:18;;;;;;;;;5.00;5.00;;;;;21.26;45.25;101745.66;4909192;29;45267;-88
2021/06/14 03:28:46;;;;;;;;;5.00;5.00;;;;;21.29;45.69;101748.31;4917457;28;45306;-89
2021/06/14 03:31:14;;;;;;;;;8.33;7.00;;;;;21.27;45.67;101753.69;4916820;28;45386;-89
2021/06/14 03:33:41;;;;;;;;;6.67;6.67;;;;;21.16;45.41;101737.75;4916241;28;45371;-89
2021/06/14 03:36:08;;;;;;;;;6.67;6.00;;;;;21.15;45.71;101741.31;4914965;28;45379;-90
2021/06/14 03:38:34;;;;;;;;;4.33;4.33;;;;;21.16;45.97;101750.22;4910409;28;45254;-88
2021/06/14 03:41:03;;;;;;;;;5.00;4.67;;;;;21.14;45.76;101746.69;4906812;29;45181;-90
2021/06/14 03:43:29;;;;;;;;;4.67;4.67;;;;;21.20;45.63;101759.97;4908723;28;46035;-90
2021/06/14 03:45:54;;;;;;;;;6.33;4.00;;;;;21.15;45.68;101765.38;4914740;29;45457;-90
2021/06/14 03:48:19;;;;;;;;;8.33;4.33;;;;;21.03;45.30;101750.34;4916576;28;45721;-91
2021/06/14 03:50:45;;;;;;;;;7.67;7.00;;;;;21.09;45.20;101761.91;4908557;28;45239;-92
2021/06/14 03:53:10;;;;;;;;;6.67;6.00;;;;;21.08;45.44;101757.44;4906622;28;45233;-91
2021/06/14 03:55:36;;;;;;;;;4.00;4.00;;;;;21.08;45.16;101768.13;4906229;29;45449;-92
2021/06/14 03:58:01;;;;;;;;;5.00;5.00;;;;;21.12;45.55;101778.78;4908232;29;45352;-92
2021/06/14 04:00:27;;;;;;;;;5.00;5.00;;;;;21.01;45.26;101762.84;4903002;28;45192;-90
2021/06/14 04:02:53;;;;;;;;;7.00;6.00;;;;;20.98;45.35;101751.31;4902527;28;46087;-89
2021/06/14 04:05:19;;;;;;;;;5.67;5.00;;;;;20.98;45.92;101751.31;4903284;28;45441;-91
2021/06/14 04:07:44;;;;;;;;;7.33;6.00;;;;;20.97;45.66;101749.50;4903078;29;45330;-92
2021/06/14 04:10:10;;;;;;;;;6.00;5.00;;;;;20.93;45.69;101746.88;4903486;29;45373;-91
2021/06/14 04:12:36;;;;;;;;;6.00;5.67;;;;;20.92;45.81;101746.84;4903302;28;46450;-92
2021/06/14 04:15:01;;;;;;;;;7.00;6.33;;;;;20.93;45.85;101752.22;4903660;29;45449;-92
2021/06/14 04:17:28;;;;;;;;;7.75;5.75;;;;;20.93;46.08;101757.56;4907587;28;45451;-92
2021/06/14 04:19:54;;;;;;;;;7.33;5.33;;;;;20.90;45.87;101757.56;4914005;28;45431;-91
2021/06/14 04:22:19;;;;;;;;;7.33;5.00;;;;;20.91;46.09;101761.13;4915459;28;45349;-91
2021/06/14 04:24:45;;;;;;;;;7.33;5.33;;;;;20.91;46.02;101766.47;4919021;29;45275;-89
2021/06/14 04:27:10;;;;;;;;;8.00;6.00;;;;;20.77;46.44;101742.56;4919716;29;45212;-88
2021/06/14 04:29:36;;;;;;;;;6.67;5.00;;;;;20.91;46.31;101778.06;4920691;28;45232;-90
2021/06/14 04:32:01;;;;;;;;;5.00;4.00;;;;;20.90;46.27;101786.97;4908700;29;47282;-92
2021/06/14 04:34:27;;;;;;;;;5.00;5.00;;;;;20.89;46.12;101785.22;4903283;29;45361;-91
2021/06/14 04:36:53;;;;;;;;;9.33;6.00;;;;;20.82;47.08;101773.69;4903700;29;45355;-92
2021/06/14 04:39:18;;;;;;;;;8.33;6.00;;;;;20.88;46.47;101791.44;4902937;29;45306;-91
2021/06/14 04:41:44;;;;;;;;;7.33;7.33;;;;;20.71;46.77;101770.22;4902597;28;45392;-91
2021/06/14 04:44:10;;;;;;;;;5.33;5.33;;;;;20.76;46.65;101783.53;4902460;29;45238;-88
2021/06/14 04:46:35;;;;;;;;;8.00;5.67;;;;;20.77;46.68;101788.84;4901388;29;45378;-91
2021/06/14 04:49:01;;;;;;;;;6.00;6.00;;;;;20.71;46.97;101779.13;4902887;28;45567;-92
2021/06/14 04:51:26;;;;;;;;;7.67;6.00;;;;;20.82;47.33;101796.84;4902561;29;46227;-90
2021/06/14 04:53:52;;;;;;;;;5.00;5.00;;;;;20.70;47.18;101774.69;4902989;29;45370;-91
2021/06/14 04:56:18;;;;;;;;;6.00;6.00;;;;;20.75;46.87;101787.97;4902675;29;45385;-89
2021/06/14 04:58:43;;;;;;;;;7.33;6.00;;;;;20.63;47.13;101767.63;4901866;29;45569;-90
2021/06/14 05:01:09;;;;;;;;;7.00;7.00;;;;;20.70;47.45;101789.81;4902853;28;45597;-88
2021/06/14 05:03:35;;;;;;;;;8.67;7.67;;;;;20.67;47.75;101795.19;4902192;29;45666;-90
2021/06/14 05:06:00;;;;;;;;;6.33;4.67;;;;;20.59;48.07;101793.47;4903766;28;45279;-89
2021/06/14 05:08:25;;;;;;;;;10.00;8.00;;;;;20.68;48.00;101810.31;4903525;28;45379;-91
2021/06/14 05:10:51;;;;;;;;;9.00;8.00;;;;;20.66;48.49;101809.44;4901558;29;47316;-90
2021/06/14 05:13:17;;;;;;;;;8.67;7.00;;;;;20.67;48.39;101809.44;4903297;29;45648;-91
2021/06/14 05:15:42;;;;;;;;;9.00;9.00;;;;;20.60;48.44;101813.06;4903205;29;45259;-91
2021/06/14 05:18:08;;;;;;;;;11.67;10.00;;;;;20.58;48.51;101809.53;4902958;28;45308;-92
2021/06/14 05:20:33;;;;;;;;;9.67;9.00;;;;;20.68;48.42;101834.38;4901491;29;48059;-90
2021/06/14 05:23:00;;;;;;;;;5.67;5.67;;;;;20.63;48.74;101826.38;4901747;29;45396;-89
2021/06/14 05:25:26;;;;;;;;;9.00;7.00;;;;;20.62;48.59;101824.63;4901850;28;45475;-88
2021/06/14 05:27:52;;;;;;;;;8.33;6.67;;;;;20.55;49.13;101822.88;4902734;28;45449;-92
2021/06/14 05:30:18;;;;;;;;;8.67;8.33;;;;;20.63;48.77;101839.75;4905382;28;46462;-91
2021/06/14 05:32:44;;;;;;;;;8.33;8.33;;;;;20.56;48.72;101825.53;4905223;29;45350;-93
2021/06/14 05:35:10;;;;;;;;;10.67;7.00;;;;;20.55;48.86;101821.09;4906966;28;45523;-88
2021/06/14 05:37:35;;;;;;;;;9.33;6.67;;;;;20.58;49.10;101828.22;4915936;28;44765;-88
2021/06/14 05:40:02;;;;;;;;;10.67;9.00;;;;;20.52;49.08;101813.09;4910745;28;46485;-89
2021/06/14 05:42:27;;;;;;;;;10.67;9.00;;;;;20.58;49.32;101821.06;4909818;28;45400;-88
2021/06/14 05:44:53;;;;;;;;;8.33;7.00;;;;;20.45;49.33;101796.22;4909620;28;45219;-90
2021/06/14 05:47:18;;;;;;;;;13.00;8.33;;;;;20.51;49.18;101794.41;4907831;29;46056;-88
2021/06/14 05:49:43;;;;;;;;;10.67;8.33;;;;;20.45;49.26;101796.22;4909431;28;45552;-88
2021/06/14 05:52:09;;;;;;;;;10.00;9.00;;;;;20.53;49.60;101806.88;4905941;28;45390;-88
2021/06/14 05:54:34;;;;;;;;;8.00;8.00;;;;;20.53;49.34;101797.97;4904350;29;45300;-89
2021/06/14 05:57:00;;;;;;;;;8.67;8.00;;;;;20.59;49.72;101803.25;4905771;29;45435;-89
2021/06/14 05:59:25;;;;;;;;;11.00;10.33;;;;;20.49;49.11;101783.75;4914535;29;45584;-88
2021/06/14 06:01:50;;;;;;;;;11.00;8.33;;;;;20.53;49.11;101792.63;4916450;29;45998;-90
2021/06/14 06:04:18;;;;;;;;;8.67;8.33;;;;;20.66;49.49;101830.81;4911728;28;45454;-88
2021/06/14 06:06:45;;;;;;;;;12.67;10.00;;;;;20.62;49.11;101832.63;4911216;28;45259;-90
2021/06/14 06:09:10;;;;;;;;;13.00;9.33;;;;;20.67;49.01;101833.47;4904508;28;46347;-89
2021/06/14 06:11:37;;;;;;;;;10.67;10.00;;;;;20.61;49.48;101822.84;4903108;28;45340;-87
2021/06/14 06:14:02;;;;;;;;;10.00;10.00;;;;;20.59;49.00;101821.97;4903100;28;45259;-88
2021/06/14 06:16:27;;;;;;;;;11.00;9.00;;;;;20.68;49.18;101837.03;4903521;28;45548;-90
2021/06/14 06:18:53;;;;;;;;;14.67;10.67;;;;;20.68;49.07;101832.59;4902733;29;46370;-89
2021/06/14 06:21:18;;;;;;;;;9.67;8.33;;;;;20.74;49.45;101834.31;4901723;29;45275;-88
2021/06/14 06:23:44;;;;;;;;;13.33;11.33;;;;;20.77;49.19;101830.75;4886397;29;45407;-89
2021/06/14 06:26:09;;;;;;;;;11.00;9.67;;;;;20.61;48.92;101796.13;4902030;29;45415;-89
2021/06/14 06:28:35;;;;;;;;;9.67;9.67;;;;;20.65;49.26;101796.97;4903113;28;45432;-88
2021/06/14 06:31:00;;;;;;;;;11.67;10.00;;;;;20.76;48.45;101802.25;4902821;28;45409;-89
2021/06/14 06:33:26;;;;;;;;;10.33;9.00;;;;;20.74;49.16;101801.38;4904339;28;45431;-89
2021/06/14 06:35:51;;;;;;;;;9.00;7.67;;;;;20.79;49.35;101811.09;4904237;29;45314;-87
2021/06/14 06:38:20;;;;;;;;;12.00;9.00;;;;;20.89;49.10;101819.06;4903231;29;46316;-89
2021/06/14 06:40:46;;;;;;;;;9.33;9.00;;;;;20.74;49.36;101788.00;4901978;29;45201;-88
2021/06/14 06:43:12;;;;;;;;;12.00;8.67;;;;;20.87;49.68;101810.16;4917766;28;45253;-90
2021/06/14 06:45:37;;;;;;;;;10.67;10.00;;;;;20.89;49.71;101803.91;4901688;29;45235;-88
2021/06/14 06:48:03;;;;;;;;;15.00;10.67;;;;;20.94;50.70;101815.44;4904930;29;47239;-88
2021/06/14 06:50:29;;;;;;;;;11.33;9.00;;;;;20.89;50.66;101806.59;4911042;28;45330;-88
2021/06/14 06:52:54;;;;;;;;;12.00;11.00;;;;;20.90;50.38;101797.66;4912452;28;45180;-89
2021/06/14 06:55:21;;;;;;;;;11.00;9.00;;;;;20.96;50.74;101809.22;4917279;28;45256;-88
2021/06/14 06:57:46;;;;;;;;;11.00;9.33;;;;;20.96;50.86;101810.09;4918961;29;46221;-89
2021/06/14 07:00:16;;;;;;;;;9.33;9.33;;;;;20.96;50.60;101806.53;4915376;28;45410;-89
2021/06/14 07:02:41;;;;;;;;;8.67;8.67;;;;;20.89;50.51;101795.91;4915847;28;45247;-88
2021/06/14 07:05:08;;;;;;;;;13.00;9.00;;;;;20.93;50.47;101797.66;4930765;28;45386;-90
2021/06/14 07:07:33;;;;;;;;;10.33;8.00;;;;;20.87;50.36;101787.00;4911156;28;45231;-87
2021/06/14 07:09:59;;;;;;;;;11.67;11.00;;;;;20.97;50.45;101800.28;4908239;29;45307;-88
2021/06/14 07:12:25;;;;;;;;;11.00;9.00;;;;;21.01;50.54;101805.63;4903802;28;45472;-89
2021/06/14 07:14:50;;;;;;;;;11.33;9.33;;;;;20.90;50.68;101776.28;4903199;29;45356;-88
2021/06/14 07:17:16;;;;;;;;;10.00;10.00;;;;;20.94;50.46;101783.38;4902004;29;46933;-89
2021/06/14 07:19:41;;;;;;;;;9.33;9.33;;;;;20.98;50.35;101781.59;4902659;29;45275;-88
2021/06/14 07:22:07;;;;;;;;;12.67;11.00;;;;;20.96;50.41;101777.13;4903707;28;45377;-89
2021/06/14 07:24:32;;;;;;;;;11.00;10.00;;;;;21.01;50.06;101775.31;4902261;29;45318;-90
2021/06/14 07:26:58;;;;;;;;;14.00;11.33;;;;;21.02;50.06;101767.31;4900339;29;47649;-88
2021/06/14 07:29:23;;;;;;;;;9.00;9.00;;;;;21.10;50.34;101775.25;4900428;29;45351;-88
2021/06/14 07:31:49;;;;;;;;;12.67;11.33;;;;;21.20;49.59;101793.84;4900657;29;45341;-89
2021/06/14 07:34:14;;;;;;;;;11.67;11.67;;;;;21.20;49.85;101788.50;4901854;28;45374;-88
2021/06/14 07:36:39;;;;;;;;;11.67;9.00;;;;;21.18;50.18;101783.19;4901384;29;47125;-90
2021/06/14 07:39:06;;;;;;;;;11.33;10.33;;;;;21.19;49.71;101781.41;4903150;28;45331;-88
2021/06/14 07:41:32;;;;;;;;;14.00;10.00;;;;;21.27;49.38;101787.53;4900150;29;45217;-89
2021/06/14 07:43:58;;;;;;;;;12.33;11.00;;;;;21.27;49.53;101777.75;4900204;29;45634;-89
2021/06/14 07:46:23;;;;;;;;;12.33;10.67;;;;;21.26;49.05;101769.72;4899622;29;48339;-88
2021/06/14 07:48:48;;;;;;;;;13.00;9.00;;;;;21.33;49.20;101768.75;4900587;28;45278;-89
2021/06/14 07:51:15;;;;;;;;;13.00;10.00;;;;;21.45;49.14;101778.41;4900325;28;45354;-89
2021/06/14 07:53:41;;;;;;;;;12.00;10.00;;;;;21.55;48.21;101789.91;4901831;28;45476;-90
2021/06/14 07:56:07;;;;;;;;;10.33;9.00;;;;;21.57;48.65;101777.41;4902202;28;46304;-89
2021/06/14 07:58:33;;;;;;;;;15.33;12.00;;;;;21.64;48.56;101772.84;4901679;28;45441;-88
2021/06/14 08:01:02;;;;;;;;;15.33;12.00;;;;;21.61;48.39;101762.19;4900925;29;45479;-89
2021/06/14 08:03:29;;;;;;;;;12.00;11.00;;;;;21.70;48.39;101755.84;4901745;29;45527;-88
2021/06/14 08:05:54;;;;;;;;;10.00;10.00;;;;;21.83;47.91;101773.53;4902545;29;46169;-88
2021/06/14 08:08:20;;;;;;;;;13.67;12.00;;;;;21.99;48.06;101770.66;4905286;28;45479;-88
2021/06/14 08:10:47;;;;;;;;;10.33;9.00;;;;;22.17;48.83;101771.28;4908171;29;45462;-88
2021/06/14 08:13:13;;;;;;;;;10.33;10.33;;;;;22.29;48.18;101748.78;4907953;29;45490;-88
2021/06/14 08:15:39;;;;;;;;;14.33;10.33;;;;;22.55;47.96;101756.41;4905043;29;46048;-89
2021/06/14 08:20:46;;;;;;;;;9.00;8.00;;;;;23.19;47.87;101758.88;4901183;28;45343;-89
2021/06/14 08:25:55;;;;;;;;;8.00;8.00;;;;;23.77;46.10;101741.63;4900924;29;45468;-89
2021/06/14 08:28:21;;;;;;;;;11.00;10.00;;;;;24.18;45.78;101753.22;4900731;28;45449;-88
2021/06/14 08:30:46;;;;;;;;;11.67;10.00;;;;;24.50;46.28;101749.81;4902299;28;45377;-89
2021/06/14 08:33:12;;;;;;;;;13.00;10.33;;;;;24.80;46.36;101736.50;4902075;28;45409;-90
2021/06/14 08:35:37;;;;;;;;;9.33;9.33;;;;;25.16;45.02;101756.19;4901873;29;46100;-90
2021/06/14 08:38:04;;;;;;;;;12.00;9.00;;;;;25.40;45.03;101740.28;4899300;29;45730;-90
2021/06/14 08:40:34;;;;;;;;;10.33;8.33;;;;;25.66;43.96;101730.50;4899645;29;45675;-88
2021/06/14 08:43:04;;;;;;;;;14.67;10.67;;;;;26.05;42.41;101734.75;4899430;29;45376;-88
2021/06/14 08:45:32;;;;;;;;;10.33;9.00;;;;;26.50;41.56;101742.31;4900297;28;46003;-90
2021/06/14 08:47:58;;;;;;;;;11.67;9.33;;;;;26.90;40.65;101745.44;4898910;29;45267;-89
2021/06/14 08:50:24;;;;;;;;;11.00;9.00;;;;;27.24;40.75;101741.53;4899225;29;45325;-90
2021/06/14 08:52:51;;;;;;;;;9.67;8.33;;;;;27.61;40.53;101728.44;4900981;28;45316;-90
2021/06/14 08:55:17;;;;;;;;;9.00;8.33;;;;;28.12;38.61;101732.75;4900443;28;45521;-89
2021/06/14 08:57:42;;;;;;;;;9.00;9.00;;;;;28.61;38.89;101733.47;4900262;28;45577;-89
2021/06/14 09:00:12;;;;;;;;;9.67;8.33;;;;;29.07;37.91;101722.47;4899366;29;45330;-89
2021/06/14 09:02:38;;;;;;;;;9.33;9.33;;;;;29.59;37.11;101720.09;4901921;29;45275;-89
2021/06/14 09:05:05;;;;;;;;;11.00;8.33;;;;;30.17;35.81;101720.91;4903534;28;46010;-90
2021/06/14 09:07:31;;;;;;;;;9.00;7.00;;;;;30.72;35.88;101719.97;4902221;29;45421;-89
2021/06/14 09:09:56;;;;;;;;;7.00;6.33;;;;;31.30;34.18;101734.09;4903898;28;45418;-89
2021/06/14 09:12:22;;;;;;;;;9.33;7.67;;;;;31.73;33.28;101716.34;4902819;29;45515;-90
2021/06/14 09:14:48;;;;;;;;;9.00;7.33;;;;;32.28;33.23;101718.66;4903614;29;45500;-89
2021/06/14 09:17:17;;;;;;;;;10.33;7.67;;;;;33.01;31.51;101718.84;4902158;29;45456;-88
2021/06/14 09:19:55;;;;;;;;;8.00;7.00;;;;;33.74;30.91;101709.72;4903935;29;45346;-90
2021/06/14 09:22:23;;;;;;;;;9.67;7.00;;;;;34.95;28.54;101716.09;4902554;29;45548;-89
2021/06/14 09:25:06;;;;;;;;;10.33;7.00;;;;;36.36;27.93;101726.84;4902122;29;47958;-89
2021/06/14 09:27:41;;;;;;;;;9.00;7.00;;;;;36.95;27.40;101726.84;4917848;28;45464;-89
2021/06/14 09:30:22;;;;;;;;;13.33;12.33;;;;;36.99;27.57;101722.88;4904067;28;45259;-89
2021/06/14 09:33:05;;;;;;;;;9.67;8.33;;;;;36.77;26.50;101713.59;4904625;28;45322;-89
2021/06/14 09:35:40;;;;;;;;;8.67;8.67;;;;;36.57;26.95;101721.56;4904790;28;45284;-89
2021/06/14 09:38:11;;;;;;;;;7.00;7.00;;;;;36.40;25.81;101732.94;4905538;29;45410;-89
2021/06/14 09:40:49;;;;;;;;;7.67;7.67;;;;;36.33;27.01;101727.03;4907017;29;45353;-89
2021/06/14 09:43:31;;;;;;;;;5.00;5.00;;;;;36.34;25.78;101720.63;4909462;28;45397;-90
2021/06/14 09:45:59;;;;;;;;;5.00;5.00;;;;;36.30;24.34;101706.25;4917914;28;45610;-91
2021/06/14 09:48:29;;;;;;;;;8.33;5.33;;;;;36.41;24.79;101726.47;4918828;28;45249;-87
2021/06/14 09:50:57;;;;;;;;;6.00;5.00;;;;;36.40;24.82;101719.25;4918824;28;45421;-89
2021/06/14 09:53:26;;;;;;;;;7.00;6.00;;;;;36.40;24.83;101700.97;4921497;29;45355;-88
2021/06/14 09:55:52;;;;;;;;;6.00;6.00;;;;;36.52;24.35;101712.81;4921470;29;47187;-90
2021/06/14 09:58:23;;;;;;;;;8.33;7.00;;;;;36.61;23.62;101723.06;4915089;29;45267;-90
2021/06/14 10:00:58;;;;;;;;;5.67;5.67;;;;;36.67;24.22;101724.44;4905702;29;45388;-88
2021/06/14 10:03:26;;;;;;;;;2.33;2.33;;;;;36.69;23.44;101710.59;4903510;28;45388;-89
2021/06/14 10:05:54;;;;;;;;;5.00;5.00;;;;;36.74;23.09;101702.91;4903532;28;45477;-93
2021/06/14 10:08:37;;;;;;;;;8.33;6.00;;;;;36.82;23.12;101710.50;4902510;29;45815;-90
2021/06/14 10:11:08;;;;;;;;;5.00;5.00;;;;;36.82;22.30;101716.84;4903354;28;45274;-90
2021/06/14 10:13:37;;;;;;;;;6.33;5.00;;;;;36.73;23.16;101710.25;4902557;28;45606;-88
2021/06/14 10:16:07;;;;;;;;;4.67;4.67;;;;;36.70;22.64;101713.22;4902813;28;45180;-90
2021/06/14 10:18:36;;;;;;;;;5.33;4.00;;;;;36.68;22.15;101728.88;4902936;28;45397;-89
2021/06/14 10:21:31;;;;;;;;;4.00;4.00;;;;;36.55;21.73;101712.56;4902738;28;45456;-88
2021/06/14 10:23:59;;;;;;;;;7.00;7.00;;;;;36.52;22.55;101715.56;4844246;29;45503;-89
2021/06/14 10:26:29;;;;;;;;;5.00;3.67;;;;;36.43;21.92;101703.47;4843761;29;47357;-89
2021/06/14 10:28:55;;;;;;;;;3.67;3.67;;;;;36.37;22.09;101715.78;4843800;29;45354;-89
2021/06/14 10:31:21;;;;;;;;;6.33;4.67;;;;;36.34;22.13;101718.72;4844360;29;45483;-88
2021/06/14 10:33:52;;;;;;;;;5.00;4.00;;;;;36.25;20.71;101708.50;4844455;29;45401;-88
2021/06/14 10:36:22;;;;;;;;;8.00;4.00;;;;;36.21;21.01;101724.28;4844983;29;45634;-88
2021/06/14 10:38:50;;;;;;;;;8.00;4.67;;;;;36.13;22.11;101716.66;4844476;29;45519;-87
2021/06/14 10:41:16;;;;;;;;;4.67;4.67;;;;;36.10;21.92;101722.38;4832365;29;45512;-88
2021/06/14 10:43:41;;;;;;;;;7.00;6.00;;;;;36.04;22.24;101706.44;4850012;29;45413;-88
2021/06/14 10:46:11;;;;;;;;;9.00;4.33;;;;;36.05;21.56;101710.91;4847830;29;46072;-87
2021/06/14 10:48:38;;;;;;;;;7.00;5.33;;;;;36.05;22.54;101710.91;4844630;29;45498;-91
2021/06/14 10:51:12;;;;;;;;;6.00;5.00;;;;;36.02;22.18;101706.53;4828742;29;45529;-88
2021/06/14 10:53:38;;;;;;;;;6.00;6.00;;;;;36.02;22.64;101705.69;4844352;29;45410;-87
2021/06/14 10:56:06;;;;;;;;;8.67;5.33;;;;;35.95;22.39;101696.19;4844044;29;45514;-87
2021/06/14 10:58:31;;;;;;;;;5.67;5.67;;;;;36.00;21.92;101704.94;4844322;29;45496;-88
2021/06/14 11:01:03;;;;;;;;;5.33;5.33;;;;;36.04;22.03;101706.44;4877071;29;45320;-87
2021/06/14 11:03:45;;;;;;;;;5.67;5.67;;;;;36.02;22.08;101709.25;4905665;28;45199;-87
2021/06/14 11:06:22;;;;;;;;;8.00;6.00;;;;;36.02;21.55;101708.41;4910347;28;45483;-86
2021/06/14 11:09:06;;;;;;;;;5.00;5.00;;;;;36.05;21.18;101708.16;4922813;29;45129;-85
2021/06/14 11:11:55;;;;;;;;;4.67;4.67;;;;;36.02;20.81;101700.22;4924204;28;44640;-85
2021/06/14 11:14:40;;;;;;;;;5.00;5.00;;;;;35.98;21.14;101693.22;4922379;28;44754;-87
2021/06/14 11:17:32;;;;;;;;;5.67;4.00;;;;;36.08;21.26;101707.94;4920372;28;45558;-86
2021/06/14 11:20:00;;;;;;;;;6.33;6.33;;;;;36.12;22.73;101705.84;4919869;28;45218;-86
2021/06/14 11:22:37;;;;;;;;;8.00;7.67;;;;;36.13;22.53;101691.19;4917663;29;45365;-86
2021/06/14 11:25:15;;;;;;;;;5.00;4.00;;;;;36.20;21.96;101706.09;4902364;29;45496;-86
2021/06/14 11:27:41;;;;;;;;;7.67;4.67;;;;;36.22;21.42;101693.19;4902754;28;45490;-87
2021/06/14 11:30:15;;;;;;;;;4.00;4.00;;;;;36.24;20.68;101699.41;4902647;28;45248;-88